createdAt,value
2022-12-18T00:01:07.206Z,-4.80
2022-12-18T00:03:34.750Z,-4.80
2022-12-18T00:06:01.516Z,-3.80
2022-12-18T00:08:28.560Z,-4.80
2022-12-18T00:10:55.455Z,-4.80
2022-12-18T00:13:28.378Z,-4.80
2022-12-18T00:15:56.652Z,-4.80
2022-12-18T00:18:23.573Z,-4.80
2022-12-18T00:20:50.208Z,-4.80
2022-12-18T00:23:16.897Z,-4.80
2022-12-18T00:25:43.652Z,-4.80
2022-12-18T00:28:10.316Z,-4.90
2022-12-18T00:30:36.985Z,-4.90
2022-12-18T00:33:03.700Z,-4.90
2022-12-18T00:35:30.365Z,-4.90
2022-12-18T00:37:57.037Z,-4.90
2022-12-18T00:40:23.783Z,-4.90
2022-12-18T00:42:56.642Z,-4.90
2022-12-18T00:45:28.170Z,-4.90
2022-12-18T00:47:55.661Z,-4.90
2022-12-18T00:50:23.751Z,-5.00
2022-12-18T00:52:50.452Z,-5.00
2022-12-18T00:55:17.668Z,-5.00
2022-12-18T00:57:44.572Z,-5.00
2022-12-18T01:00:13.732Z,-5.00
2022-12-18T01:02:41.226Z,-5.00
2022-12-18T01:05:09.527Z,-5.00
2022-12-18T01:07:36.179Z,-5.00
2022-12-18T01:10:03.224Z,-5.00
2022-12-18T01:12:29.854Z,-5.10
2022-12-18T01:14:56.548Z,-5.10
2022-12-18T01:17:23.410Z,-5.10
2022-12-18T01:19:50.057Z,-5.10
2022-12-18T01:22:17.133Z,-5.10
2022-12-18T01:24:43.739Z,-5.10
2022-12-18T01:27:10.422Z,-5.10
2022-12-18T01:29:37.097Z,-6.10
2022-12-18T01:32:03.920Z,-5.50
2022-12-18T01:34:30.600Z,-5.00
2022-12-18T01:36:57.236Z,-5.00
2022-12-18T01:39:23.881Z,-5.00
2022-12-18T01:42:03.036Z,-5.00
2022-12-18T01:44:48.675Z,-4.90
2022-12-18T01:47:46.697Z,-4.90
2022-12-18T01:50:21.260Z,-4.90
2022-12-18T01:53:01.410Z,-4.80
2022-12-18T01:55:31.520Z,-4.80
2022-12-18T01:58:00.065Z,-4.80
2022-12-18T02:00:27.437Z,-4.90
2022-12-18T02:02:54.393Z,-4.90
2022-12-18T02:05:52.092Z,-4.90
2022-12-18T02:08:43.682Z,-4.90
2022-12-18T02:11:54.350Z,-4.90
2022-12-18T02:14:38.182Z,-4.90
2022-12-18T02:17:09.422Z,-4.90
2022-12-18T02:20:03.776Z,-4.80
2022-12-18T02:22:51.411Z,-4.80
2022-12-18T02:25:24.041Z,-4.70
2022-12-18T02:27:52.172Z,-4.70
2022-12-18T02:30:19.461Z,-4.70
2022-12-18T02:32:52.167Z,-4.80
2022-12-18T02:35:26.349Z,-4.80
2022-12-18T02:37:54.596Z,-4.70
2022-12-18T02:40:22.595Z,-4.70
2022-12-18T02:42:49.314Z,-4.70
2022-12-18T02:45:16.142Z,-4.70
2022-12-18T02:47:46.649Z,-4.70
2022-12-18T02:50:50.526Z,-4.60
2022-12-18T02:53:44.311Z,-4.60
2022-12-18T02:56:18.128Z,-4.50
2022-12-18T02:58:48.085Z,-4.50
2022-12-18T03:01:21.139Z,-4.40
2022-12-18T03:03:58.521Z,-4.40
2022-12-18T03:06:29.175Z,-4.40
2022-12-18T03:09:00.655Z,-4.40
2022-12-18T03:11:49.682Z,-4.40
2022-12-18T03:14:17.358Z,-4.40
2022-12-18T03:16:45.775Z,-4.40
2022-12-18T03:19:19.184Z,-4.40
2022-12-18T03:21:54.110Z,-4.40
2022-12-18T03:24:21.871Z,-4.40
2022-12-18T03:26:53.921Z,-4.30
2022-12-18T03:29:25.354Z,-4.30
2022-12-18T03:31:57.984Z,-4.30
2022-12-18T03:34:29.751Z,-4.30
2022-12-18T03:36:56.546Z,-4.30
2022-12-18T03:39:23.275Z,-4.20
2022-12-18T03:42:14.711Z,-4.20
2022-12-18T03:44:51.077Z,-4.20
2022-12-18T03:47:44.979Z,-4.20
2022-12-18T03:50:19.576Z,-4.20
2022-12-18T03:53:10.991Z,-3.60
2022-12-18T03:55:38.141Z,-4.20
2022-12-18T03:58:06.095Z,-4.20
2022-12-18T04:00:33.130Z,-4.20
2022-12-18T04:03:01.190Z,-4.20
2022-12-18T04:05:28.497Z,-4.20
2022-12-18T04:07:56.176Z,-4.20
2022-12-18T04:10:22.888Z,-4.10
2022-12-18T04:12:49.602Z,-4.10
2022-12-18T04:15:16.308Z,-4.10
2022-12-18T04:17:48.933Z,-4.10
2022-12-18T04:20:16.034Z,-4.10
2022-12-18T04:22:42.827Z,-4.10
2022-12-18T04:25:09.737Z,-4.10
2022-12-18T04:27:36.445Z,-4.10
2022-12-18T04:30:03.347Z,-4.20
2022-12-18T04:32:30.018Z,-4.20
2022-12-18T04:34:56.687Z,-4.20
2022-12-18T04:37:23.364Z,-4.20
2022-12-18T04:39:50.037Z,-4.20
2022-12-18T04:42:16.737Z,-4.20
2022-12-18T04:44:43.411Z,-4.20
2022-12-18T04:47:10.092Z,-4.20
2022-12-18T04:49:36.762Z,-4.20
2022-12-18T04:52:03.487Z,-4.30
2022-12-18T04:54:30.217Z,-4.30
2022-12-18T04:56:56.973Z,-4.30
2022-12-18T04:59:23.677Z,-4.30
2022-12-18T05:01:50.900Z,-4.30
2022-12-18T05:04:17.787Z,-4.30
2022-12-18T05:06:44.985Z,-4.40
2022-12-18T05:09:11.699Z,-4.50
2022-12-18T05:11:38.594Z,-4.60
2022-12-18T05:14:05.382Z,-4.60
2022-12-18T05:16:32.551Z,-4.70
2022-12-18T05:18:59.265Z,-4.70
2022-12-18T05:21:25.937Z,-4.70
2022-12-18T05:23:52.649Z,-4.70
2022-12-18T05:26:19.618Z,-4.70
2022-12-18T05:28:47.096Z,-4.70
2022-12-18T05:31:13.883Z,-4.70
2022-12-18T05:33:41.026Z,-4.70
2022-12-18T05:36:09.446Z,-4.70
2022-12-18T05:38:38.305Z,-4.70
2022-12-18T05:41:05.618Z,-4.70
2022-12-18T05:43:34.311Z,-4.70
2022-12-18T05:46:05.515Z,-4.70
2022-12-18T05:48:32.429Z,-4.70
2022-12-18T05:51:06.705Z,-4.80
2022-12-18T05:53:33.513Z,-4.80
2022-12-18T05:56:05.714Z,-4.80
2022-12-18T05:58:33.224Z,-4.80
2022-12-18T06:01:09.296Z,-4.80
2022-12-18T06:03:36.054Z,-4.90
2022-12-18T06:06:02.860Z,-4.90
2022-12-18T06:08:29.633Z,-4.90
2022-12-18T06:10:56.480Z,-4.90
2022-12-18T06:13:23.619Z,-4.80
2022-12-18T06:15:50.611Z,-5.00
2022-12-18T06:18:17.440Z,-5.00
2022-12-18T06:20:44.156Z,-4.90
2022-12-18T06:23:10.830Z,-4.90
2022-12-18T06:25:40.728Z,-4.90
2022-12-18T06:28:07.513Z,-4.90
2022-12-18T06:30:34.205Z,-4.90
2022-12-18T06:33:00.976Z,-4.90
2022-12-18T06:35:27.697Z,-4.90
2022-12-18T06:37:54.447Z,-4.90
2022-12-18T06:40:21.358Z,-5.00
2022-12-18T06:42:48.065Z,-5.00
2022-12-18T06:45:14.812Z,-5.00
2022-12-18T06:47:41.473Z,-5.00
2022-12-18T06:50:08.615Z,-5.10
2022-12-18T06:52:35.326Z,-5.10
2022-12-18T06:55:02.103Z,-5.20
2022-12-18T06:57:28.836Z,-5.20
2022-12-18T06:59:55.826Z,-5.20
2022-12-18T07:02:22.547Z,-5.20
2022-12-18T07:04:49.345Z,-5.30
2022-12-18T07:07:16.056Z,-5.30
2022-12-18T07:09:43.036Z,-5.30
2022-12-18T07:12:09.795Z,-5.30
2022-12-18T07:14:36.663Z,-5.30
2022-12-18T07:17:03.405Z,-5.30
2022-12-18T07:19:30.647Z,-5.30
2022-12-18T07:21:57.866Z,-5.30
2022-12-18T07:24:24.606Z,-5.30
2022-12-18T07:26:51.326Z,-5.30
2022-12-18T07:29:18.123Z,-5.30
2022-12-18T07:31:45.215Z,-5.20
2022-12-18T07:34:16.192Z,-5.20
2022-12-18T07:36:43.019Z,-5.20
2022-12-18T07:39:11.156Z,-5.10
2022-12-18T07:41:40.278Z,-5.10
2022-12-18T07:44:11.711Z,-5.00
2022-12-18T07:46:38.690Z,-5.00
2022-12-18T07:49:05.582Z,-5.00
2022-12-18T07:51:32.509Z,-5.00
2022-12-18T07:53:59.283Z,-5.00
2022-12-18T07:56:28.193Z,-4.90
2022-12-18T07:58:55.985Z,-4.90
2022-12-18T08:01:22.802Z,-4.80
2022-12-18T08:03:49.937Z,-4.80
2022-12-18T08:06:19.488Z,-4.70
2022-12-18T08:08:49.918Z,-4.60
2022-12-18T08:11:17.116Z,-4.40
2022-12-18T08:13:43.901Z,-4.40
2022-12-18T08:16:10.781Z,-4.30
2022-12-18T08:18:38.357Z,-4.20
2022-12-18T08:21:23.860Z,-4.20
2022-12-18T08:23:52.273Z,-4.10
2022-12-18T08:26:19.883Z,-4.10
2022-12-18T08:28:47.708Z,-4.00
2022-12-18T08:31:14.961Z,-4.00
2022-12-18T08:33:42.175Z,-4.00
2022-12-18T08:36:10.067Z,-4.10
2022-12-18T08:38:37.016Z,-4.10
2022-12-18T08:41:08.497Z,-4.20
2022-12-18T08:43:54.245Z,-4.20
2022-12-18T08:46:22.943Z,-4.10
2022-12-18T08:48:51.694Z,-3.90
2022-12-18T08:51:18.775Z,-4.00
2022-12-18T08:53:45.768Z,-3.90
2022-12-18T08:56:13.334Z,-3.80
2022-12-18T08:58:40.244Z,-3.70
2022-12-18T09:01:10.194Z,-3.50
2022-12-18T09:03:37.621Z,-3.40
2022-12-18T09:06:04.948Z,-3.30
2022-12-18T09:08:31.774Z,-3.20
2022-12-18T09:10:58.584Z,-3.00
2022-12-18T09:13:25.339Z,-3.10
2022-12-18T09:15:53.975Z,-3.00
2022-12-18T09:18:21.725Z,-2.90
2022-12-18T09:20:48.481Z,-2.80
2022-12-18T09:23:15.459Z,-2.70
2022-12-18T09:25:42.154Z,-2.60
2022-12-18T09:28:16.120Z,-2.50
2022-12-18T09:30:48.141Z,-2.40
2022-12-18T09:33:14.951Z,-2.30
2022-12-18T09:35:42.780Z,-2.20
2022-12-18T09:38:12.172Z,-2.20
2022-12-18T09:40:45.162Z,-2.10
2022-12-18T09:43:22.233Z,-2.00
2022-12-18T09:45:59.890Z,-2.00
2022-12-18T09:48:30.895Z,-2.00
2022-12-18T09:51:03.039Z,-2.00
2022-12-18T09:53:33.838Z,-1.90
2022-12-18T09:56:01.538Z,-1.90
2022-12-18T09:58:45.152Z,-1.80
2022-12-18T10:01:19.203Z,-1.80
2022-12-18T10:03:45.983Z,-1.80
2022-12-18T10:06:21.921Z,-1.80
2022-12-18T10:09:19.674Z,-1.80
2022-12-18T10:11:50.246Z,-1.80
2022-12-18T10:14:23.365Z,-1.80
2022-12-18T10:17:13.901Z,-1.70
2022-12-18T10:19:55.910Z,-1.70
2022-12-18T10:22:47.491Z,-1.60
2022-12-18T10:25:24.916Z,-1.50
2022-12-18T10:27:58.745Z,-1.40
2022-12-18T10:30:26.687Z,-1.30
2022-12-18T10:32:53.612Z,-1.30
2022-12-18T10:35:26.468Z,-1.30
2022-12-18T10:38:02.216Z,-1.30
2022-12-18T10:40:29.107Z,-1.20
2022-12-18T10:43:12.427Z,-1.20
2022-12-18T10:45:39.399Z,-1.20
2022-12-18T10:48:06.226Z,-1.20
2022-12-18T10:51:09.022Z,-1.10
2022-12-18T10:53:28.044Z,-1.10
2022-12-18T10:55:58.004Z,-1.20
2022-12-18T10:58:33.164Z,-1.20
2022-12-18T11:01:07.971Z,-1.20
2022-12-18T11:03:38.963Z,-1.10
2022-12-18T11:06:08.800Z,-1.20
2022-12-18T11:08:36.012Z,-1.10
2022-12-18T11:11:02.959Z,-1.30
2022-12-18T11:13:31.552Z,-1.40
2022-12-18T11:15:58.684Z,-1.40
2022-12-18T11:18:33.336Z,-1.40
2022-12-18T11:21:10.693Z,-1.40
2022-12-18T11:23:38.626Z,-1.40
2022-12-18T11:26:07.000Z,-1.40
2022-12-18T11:28:38.886Z,-1.40
2022-12-18T11:31:21.126Z,-1.40
2022-12-18T11:36:53.591Z,-1.50
2022-12-18T11:39:32.547Z,-1.40
2022-12-18T11:42:12.454Z,-1.50
2022-12-18T11:44:52.106Z,-1.50
2022-12-18T11:47:43.526Z,-1.50
2022-12-18T11:50:33.120Z,-1.50
2022-12-18T11:53:05.491Z,-1.60
2022-12-18T11:55:54.651Z,-1.60
2022-12-18T11:58:46.588Z,-1.60
2022-12-18T12:01:25.270Z,-1.60
2022-12-18T12:04:36.757Z,-1.60
2022-12-18T12:07:33.285Z,-1.60
2022-12-18T12:10:48.666Z,-1.50
2022-12-18T12:13:31.460Z,-1.50
2022-12-18T12:16:30.045Z,-1.50
2022-12-18T12:19:06.265Z,-1.40
2022-12-18T12:21:42.453Z,-1.30
2022-12-18T12:24:30.158Z,-1.20
2022-12-18T12:27:11.592Z,-1.70
2022-12-18T12:29:59.907Z,-1.20
2022-12-18T12:32:55.020Z,-1.20
2022-12-18T12:35:30.955Z,-1.20
2022-12-18T12:38:19.536Z,-1.20
2022-12-18T12:41:03.455Z,-1.20
2022-12-18T12:43:50.493Z,-0.50
2022-12-18T12:46:20.668Z,-1.20
2022-12-18T12:48:52.434Z,-1.10
2022-12-18T12:51:38.004Z,-1.00
2022-12-18T12:54:07.714Z,-1.00
2022-12-18T12:57:02.052Z,-1.00
2022-12-18T12:59:52.651Z,-0.90
2022-12-18T13:02:40.624Z,-0.90
2022-12-18T13:05:26.178Z,-0.90
2022-12-18T13:08:05.206Z,-0.80
2022-12-18T13:10:38.846Z,-0.80
2022-12-18T13:13:09.232Z,-0.80
2022-12-18T13:15:46.063Z,-0.80
2022-12-18T13:18:23.455Z,-0.90
2022-12-18T13:21:03.050Z,-0.90
2022-12-18T13:23:39.614Z,-0.90
2022-12-18T13:26:10.768Z,-0.90
2022-12-18T13:28:49.317Z,-0.80
2022-12-18T13:31:42.197Z,-0.80
2022-12-18T13:34:27.695Z,-0.80
2022-12-18T13:36:58.484Z,-0.90
2022-12-18T13:39:35.266Z,-0.90
2022-12-18T13:42:31.751Z,-1.00
2022-12-18T13:44:59.039Z,-1.10
2022-12-18T13:47:33.884Z,-1.10
2022-12-18T13:50:02.127Z,-1.10
2022-12-18T13:52:30.245Z,-1.20
2022-12-18T13:54:58.861Z,-1.20
2022-12-18T13:57:39.238Z,-1.20
2022-12-18T14:00:29.761Z,-1.30
2022-12-18T14:02:58.176Z,-1.30
2022-12-18T14:05:30.796Z,-1.30
2022-12-18T14:08:03.104Z,-1.30
2022-12-18T14:10:48.198Z,-1.30
2022-12-18T14:13:28.882Z,-1.40
2022-12-18T14:15:57.139Z,-1.40
2022-12-18T14:18:26.786Z,-1.40
2022-12-18T14:20:57.825Z,-1.40
2022-12-18T14:23:31.034Z,-1.40
2022-12-18T14:26:02.092Z,-1.40
2022-12-18T14:28:32.023Z,-1.40
2022-12-18T14:30:58.796Z,-1.50
2022-12-18T14:33:27.810Z,-1.50
2022-12-18T14:36:00.039Z,-1.50
2022-12-18T14:38:28.697Z,-1.50
2022-12-18T14:40:57.436Z,-1.60
2022-12-18T14:43:24.392Z,-1.60
2022-12-18T14:45:51.982Z,-1.70
2022-12-18T14:48:23.408Z,-1.70
2022-12-18T14:51:17.129Z,-1.70
2022-12-18T14:53:52.374Z,-1.70
2022-12-18T14:56:31.873Z,-1.70
2022-12-18T14:59:01.476Z,-1.70
2022-12-18T15:01:29.577Z,-1.80
2022-12-18T15:03:57.896Z,-1.80
2022-12-18T15:06:38.793Z,-1.60
2022-12-18T15:09:25.102Z,-1.80
2022-12-18T15:11:57.768Z,-1.90
2022-12-18T15:14:39.598Z,-1.90
2022-12-18T15:17:24.592Z,-1.90
2022-12-18T15:19:59.269Z,-2.00
2022-12-18T15:22:31.325Z,-2.00
2022-12-18T15:24:59.313Z,-2.00
2022-12-18T15:27:38.948Z,-2.00
2022-12-18T15:30:11.363Z,-2.00
2022-12-18T15:32:39.115Z,-2.00
2022-12-18T15:35:16.004Z,-2.00
2022-12-18T15:37:43.463Z,-1.90
2022-12-18T15:40:17.550Z,-1.90
2022-12-18T15:43:03.501Z,-1.80
2022-12-18T15:45:30.404Z,-1.70
2022-12-18T15:47:57.379Z,-1.70
2022-12-18T15:50:24.222Z,-1.70
2022-12-18T15:52:53.207Z,-1.60
2022-12-18T15:55:40.303Z,-1.60
2022-12-18T15:58:09.192Z,-1.60
2022-12-18T16:00:38.245Z,-1.60
2022-12-18T16:03:05.947Z,-1.60
2022-12-18T16:05:33.520Z,-1.60
2022-12-18T16:08:00.209Z,-1.60
2022-12-18T16:10:27.597Z,-1.50
2022-12-18T16:12:54.369Z,-1.50
2022-12-18T16:15:24.838Z,-1.30
2022-12-18T16:17:52.824Z,-1.20
2022-12-18T16:20:23.299Z,-1.10
2022-12-18T16:22:50.636Z,-1.00
2022-12-18T16:25:28.230Z,-0.90
2022-12-18T16:27:58.584Z,-0.80
2022-12-18T16:30:28.742Z,-0.70
2022-12-18T16:32:59.541Z,-0.70
2022-12-18T16:35:27.424Z,-0.60
2022-12-18T16:37:54.466Z,-0.50
2022-12-18T16:40:21.222Z,-0.40
2022-12-18T16:42:47.959Z,-0.30
2022-12-18T16:45:17.395Z,-0.30
2022-12-18T16:47:44.625Z,-0.20
2022-12-18T16:50:11.704Z,-0.20
2022-12-18T16:52:38.949Z,-0.20
2022-12-18T16:55:06.026Z,-0.30
2022-12-18T16:57:33.002Z,-0.30
2022-12-18T17:00:04.766Z,-0.30
2022-12-18T17:02:32.852Z,-0.20
2022-12-18T17:04:59.835Z,-0.20
2022-12-18T17:07:28.155Z,-0.20
2022-12-18T17:09:55.326Z,-0.10
2022-12-18T17:12:22.653Z,-0.10
2022-12-18T17:14:49.620Z,-0.10
2022-12-18T17:17:21.374Z,-0.10
2022-12-18T17:19:49.626Z,-0.10
2022-12-18T17:22:16.371Z,0.00
2022-12-18T17:24:43.084Z,0.00
2022-12-18T17:27:09.880Z,0.10
2022-12-18T17:29:36.587Z,0.10
2022-12-18T17:32:03.600Z,0.00
2022-12-18T17:34:30.719Z,0.00
2022-12-18T17:36:57.886Z,0.00
2022-12-18T17:39:24.589Z,0.00
2022-12-18T17:41:51.425Z,-0.10
2022-12-18T17:44:18.737Z,0.00
2022-12-18T17:46:46.210Z,0.00
2022-12-18T17:49:14.005Z,-0.10
2022-12-18T17:51:42.774Z,0.00
2022-12-18T17:54:10.106Z,0.10
2022-12-18T17:56:36.890Z,0.10
2022-12-18T17:59:04.398Z,0.10
2022-12-18T18:01:31.175Z,0.10
2022-12-18T18:04:00.210Z,0.20
2022-12-18T18:06:27.488Z,0.20
2022-12-18T18:08:54.606Z,0.20
2022-12-18T18:11:42.290Z,0.20
2022-12-18T18:14:15.455Z,0.20
2022-12-18T18:16:44.448Z,0.30
2022-12-18T18:19:17.181Z,0.40
2022-12-18T18:21:45.842Z,0.40
2022-12-18T18:24:15.038Z,0.50
2022-12-18T18:26:42.112Z,0.60
2022-12-18T18:29:16.480Z,0.70
2022-12-18T18:31:44.071Z,0.80
2022-12-18T18:34:15.756Z,0.90
2022-12-18T18:36:42.774Z,1.00
2022-12-18T18:39:09.448Z,1.00
2022-12-18T18:41:37.255Z,1.10
2022-12-18T18:44:04.407Z,1.10
2022-12-18T18:46:31.091Z,1.20
2022-12-18T18:48:57.824Z,1.30
2022-12-18T18:51:24.536Z,1.30
2022-12-18T18:53:52.719Z,1.30
2022-12-18T18:59:08.552Z,1.50
2022-12-18T19:01:36.436Z,1.50
2022-12-18T19:04:03.618Z,1.60
2022-12-18T19:06:31.240Z,1.60
2022-12-18T19:09:01.105Z,1.70
2022-12-18T19:11:46.483Z,1.70
2022-12-18T19:14:14.346Z,1.80
2022-12-18T19:16:42.038Z,1.90
2022-12-18T19:19:09.177Z,2.00
2022-12-18T19:21:38.080Z,2.10
2022-12-18T19:24:06.537Z,2.80
2022-12-18T19:26:33.622Z,2.20
2022-12-18T19:29:02.156Z,2.20
2022-12-18T19:31:34.824Z,2.20
2022-12-18T19:34:03.146Z,2.30
2022-12-18T19:36:31.386Z,2.30
2022-12-18T19:39:00.625Z,2.30
2022-12-18T19:41:30.673Z,2.30
2022-12-18T19:43:59.950Z,2.30
2022-12-18T19:46:28.635Z,2.40
2022-12-18T19:48:55.312Z,2.40
2022-12-18T19:51:27.808Z,2.40
2022-12-18T19:53:58.898Z,2.40
2022-12-18T19:56:29.726Z,2.40
2022-12-18T19:58:56.717Z,2.50
2022-12-18T20:01:25.305Z,2.50
2022-12-18T20:03:54.469Z,2.50
2022-12-18T20:06:36.643Z,2.50
2022-12-18T20:09:06.074Z,2.50
2022-12-18T20:11:38.868Z,2.40
2022-12-18T20:14:12.878Z,2.40
2022-12-18T20:16:39.998Z,2.40
2022-12-18T20:19:07.622Z,2.40
2022-12-18T20:21:34.635Z,2.40
2022-12-18T20:24:02.059Z,2.40
2022-12-18T20:26:29.270Z,2.40
2022-12-18T20:28:56.515Z,2.40
2022-12-18T20:31:23.714Z,2.50
2022-12-18T20:33:51.012Z,2.50
2022-12-18T20:36:22.571Z,2.60
2022-12-18T20:38:56.981Z,2.60
2022-12-18T20:41:24.858Z,2.60
2022-12-18T20:43:52.104Z,2.70
2022-12-18T20:46:19.053Z,2.70
2022-12-18T20:48:47.831Z,2.80
2022-12-18T20:51:17.372Z,2.80
2022-12-18T20:53:45.356Z,2.80
2022-12-18T20:56:17.792Z,2.90
2022-12-18T20:58:51.305Z,2.80
2022-12-18T21:01:23.652Z,2.80
2022-12-18T21:03:51.220Z,2.80
2022-12-18T21:06:19.991Z,2.70
2022-12-18T21:08:46.705Z,2.80
2022-12-18T21:11:45.366Z,2.80
2022-12-18T21:14:17.842Z,2.80
2022-12-18T21:16:45.143Z,2.80
2022-12-18T21:19:13.364Z,2.70
2022-12-18T21:21:40.767Z,2.70
2022-12-18T21:24:08.102Z,2.70
2022-12-18T21:26:34.819Z,2.70
2022-12-18T21:29:05.113Z,2.60
2022-12-18T21:31:33.936Z,2.60
2022-12-18T21:34:02.492Z,2.60
2022-12-18T21:36:30.301Z,2.60
2022-12-18T21:38:58.572Z,2.60
2022-12-18T21:41:44.793Z,2.60
2022-12-18T21:44:16.864Z,2.70
2022-12-18T21:46:48.975Z,2.70
2022-12-18T21:49:22.843Z,2.70
2022-12-18T21:51:51.520Z,2.80
2022-12-18T21:54:18.773Z,2.80
2022-12-18T21:56:59.877Z,2.90
2022-12-18T21:59:33.921Z,2.90
2022-12-18T22:02:04.763Z,3.00
2022-12-18T22:04:31.594Z,3.00
2022-12-18T22:07:03.499Z,3.00
2022-12-18T22:09:30.829Z,3.00
2022-12-18T22:11:58.115Z,3.00
2022-12-18T22:14:24.951Z,3.10
2022-12-18T22:16:52.503Z,3.10
2022-12-18T22:19:20.336Z,3.80
2022-12-18T22:21:48.701Z,3.00
2022-12-18T22:24:20.074Z,3.00
2022-12-18T22:26:47.441Z,3.10
2022-12-18T22:29:34.829Z,3.10
2022-12-18T22:32:02.278Z,3.10
2022-12-18T22:34:29.222Z,3.10
2022-12-18T22:36:56.031Z,3.10
2022-12-18T22:39:25.340Z,3.10
2022-12-18T22:41:52.711Z,3.10
2022-12-18T22:44:19.988Z,3.10
2022-12-18T22:47:03.519Z,3.10
2022-12-18T22:49:34.741Z,3.10
2022-12-18T22:52:02.294Z,3.20
2022-12-18T22:54:29.070Z,3.20
2022-12-18T22:56:55.726Z,3.10
2022-12-18T22:59:23.406Z,3.10
2022-12-18T23:01:52.932Z,3.10
2022-12-18T23:04:30.624Z,3.00
2022-12-18T23:07:05.317Z,2.90
2022-12-18T23:09:32.569Z,2.80
2022-12-18T23:11:59.389Z,2.70
2022-12-18T23:14:26.291Z,2.70
2022-12-18T23:16:53.030Z,2.60
2022-12-18T23:19:20.644Z,2.60
2022-12-18T23:21:47.361Z,2.90
2022-12-18T23:24:14.388Z,2.50
2022-12-18T23:26:41.550Z,2.40
2022-12-18T23:29:08.516Z,2.30
2022-12-18T23:31:37.378Z,2.20
2022-12-18T23:34:05.082Z,2.10
2022-12-18T23:36:35.245Z,2.10
2022-12-18T23:39:12.697Z,2.00
2022-12-18T23:41:48.098Z,2.00
2022-12-18T23:44:14.776Z,2.00
2022-12-18T23:46:41.613Z,2.00
2022-12-18T23:49:09.288Z,2.00
2022-12-18T23:51:35.967Z,2.10
2022-12-18T23:54:03.610Z,2.10
2022-12-18T23:56:30.833Z,2.20
2022-12-18T23:58:57.826Z,2.20
